createdAt,value
2022-09-05T00:01:27.821Z,100729.00
2022-09-05T00:06:26.990Z,100730.47
2022-09-05T00:11:45.995Z,100726.91
2022-09-05T00:16:51.226Z,100729.19
2022-09-05T00:24:28.685Z,100723.09
2022-09-05T00:27:50.785Z,100719.81
2022-09-05T00:33:24.627Z,100716.88
2022-09-05T00:38:29.125Z,100716.50
2022-09-05T00:43:36.793Z,100711.44
2022-09-05T00:48:47.627Z,100716.63
2022-09-05T00:54:02.320Z,100722.97
2022-09-05T00:59:26.537Z,100723.69
2022-09-05T01:04:56.794Z,100719.97
2022-09-05T01:10:23.645Z,100718.44
2022-09-05T01:15:32.938Z,100715.59
2022-09-05T01:21:05.384Z,100712.34
2022-09-05T01:26:15.643Z,100709.41
2022-09-05T01:31:23.660Z,100709.59
2022-09-05T01:36:47.678Z,100711.78
2022-09-05T01:42:00.380Z,100713.47
2022-09-05T01:47:14.562Z,100717.16
2022-09-05T01:53:04.290Z,100706.06
2022-09-05T01:58:20.289Z,100718.13
2022-09-05T02:03:29.820Z,100715.75
2022-09-05T02:08:42.890Z,100717.28
2022-09-05T02:13:48.695Z,100719.50
2022-09-05T02:19:01.286Z,100716.63
2022-09-05T02:24:23.174Z,100718.97
2022-09-05T02:29:36.555Z,100719.38
2022-09-05T02:34:50.805Z,100718.69
2022-09-05T02:45:04.158Z,100717.28
2022-09-05T02:45:33.543Z,100721.72
2022-09-05T02:57:30.319Z,100714.78
2022-09-05T02:57:45.988Z,100715.75
2022-09-05T03:02:26.332Z,100715.44
2022-09-05T03:07:34.809Z,100711.25
2022-09-05T03:13:14.923Z,100712.28
2022-09-05T03:18:46.897Z,100707.81
2022-09-05T03:23:52.487Z,100706.19
2022-09-05T03:29:13.066Z,100716.63
2022-09-05T03:34:34.511Z,100715.03
2022-09-05T03:40:15.691Z,100714.72
2022-09-05T03:45:43.779Z,100717.53
2022-09-05T03:57:07.966Z,100725.25
2022-09-05T03:57:22.671Z,100724.75
2022-09-05T04:04:14.291Z,100715.97
2022-09-05T04:08:24.099Z,100729.06
2022-09-05T04:12:55.547Z,100728.41
2022-09-05T04:18:03.785Z,100723.72
2022-09-05T04:23:28.374Z,100734.47
2022-09-05T04:28:53.258Z,100740.16
2022-09-05T04:34:18.777Z,100739.19
2022-09-05T04:39:25.990Z,100747.81
2022-09-05T04:44:30.444Z,100743.81
2022-09-05T04:49:54.863Z,100747.19
2022-09-05T04:55:10.514Z,100757.63
2022-09-05T05:04:49.421Z,100753.75
2022-09-05T05:06:19.942Z,100761.91
2022-09-05T05:16:17.262Z,100766.50
2022-09-05T05:18:06.723Z,100769.19
2022-09-05T05:21:58.023Z,100779.25
2022-09-05T05:27:04.178Z,100771.06
2022-09-05T05:32:03.839Z,100781.66
2022-09-05T05:37:08.741Z,100783.53
2022-09-05T05:42:20.306Z,100785.25
2022-09-05T05:47:35.847Z,100792.34
2022-09-05T05:52:40.764Z,100805.25
2022-09-05T05:58:21.802Z,100807.31
2022-09-05T06:03:58.873Z,100808.13
2022-09-05T06:12:53.617Z,100816.59
2022-09-05T06:15:18.041Z,100818.94
2022-09-05T06:22:06.574Z,100821.53
2022-09-05T06:26:20.150Z,100819.97
2022-09-05T06:31:29.840Z,100826.50
2022-09-05T06:36:46.758Z,100825.44
2022-09-05T06:42:03.556Z,100828.72
2022-09-05T06:47:22.681Z,100828.97
2022-09-05T06:52:56.155Z,100827.94
2022-09-05T06:58:37.463Z,100835.25
2022-09-05T07:03:52.790Z,100839.25
2022-09-05T07:09:17.059Z,100836.03
2022-09-05T07:14:22.518Z,100832.41
2022-09-05T07:19:33.130Z,100844.94
2022-09-05T07:24:54.721Z,100846.88
2022-09-05T07:30:01.106Z,100854.00
2022-09-05T07:35:03.046Z,100845.16
2022-09-05T07:40:02.419Z,100855.13
2022-09-05T07:45:13.655Z,100862.16
2022-09-05T07:53:49.815Z,100859.03
2022-09-05T07:57:01.036Z,100849.13
2022-09-05T08:00:54.657Z,100849.25
2022-09-05T08:05:54.134Z,100851.50
2022-09-05T08:11:23.245Z,100858.69
2022-09-05T08:16:15.627Z,100852.84
2022-09-05T08:21:22.411Z,100850.50
2022-09-05T08:26:49.560Z,100857.19
2022-09-05T08:31:55.268Z,100847.66
2022-09-05T08:36:55.831Z,100848.34
2022-09-05T08:42:27.560Z,100844.34
2022-09-05T08:47:50.057Z,100850.22
2022-09-05T08:53:28.392Z,100841.53
2022-09-05T08:58:46.896Z,100834.88
2022-09-05T09:04:00.508Z,100826.63
2022-09-05T09:09:17.058Z,100826.53
2022-09-05T09:14:30.221Z,100823.66
2022-09-05T09:19:52.612Z,100823.88
2022-09-05T09:25:15.020Z,100815.03
2022-09-05T09:30:13.802Z,100812.66
2022-09-05T09:35:16.782Z,100803.47
2022-09-05T09:40:36.039Z,100804.97
2022-09-05T09:46:11.401Z,100795.34
2022-09-05T09:51:19.143Z,100796.13
2022-09-05T09:56:34.307Z,100794.56
2022-09-05T10:01:59.604Z,100787.13
2022-09-05T10:10:51.764Z,100787.88
2022-09-05T10:13:26.909Z,100775.31
2022-09-05T10:18:44.909Z,100779.78
2022-09-05T10:23:54.491Z,100782.91
2022-09-05T10:29:30.150Z,100774.97
2022-09-05T10:35:13.823Z,100773.53
2022-09-05T10:39:52.476Z,100763.38
2022-09-05T10:44:56.663Z,100760.06
2022-09-05T10:50:09.147Z,100754.19
2022-09-05T10:55:14.201Z,100740.47
2022-09-05T11:02:23.156Z,100734.59
2022-09-05T11:05:56.849Z,100735.03
2022-09-05T11:11:01.599Z,100730.84
2022-09-05T11:16:18.743Z,100729.81
2022-09-05T11:21:45.598Z,100732.47
2022-09-05T11:27:24.980Z,100737.69
2022-09-05T11:39:47.231Z,100724.13
2022-09-05T11:40:02.466Z,100717.84
2022-09-05T11:44:30.582Z,100710.84
2022-09-05T11:49:42.313Z,100714.59
2022-09-05T11:55:10.913Z,100710.84
2022-09-05T12:00:33.469Z,100696.09
2022-09-05T12:06:06.156Z,100696.47
2022-09-05T12:11:23.868Z,100693.25
2022-09-05T12:16:39.245Z,100685.25
2022-09-05T12:22:23.842Z,100679.66
2022-09-05T12:27:43.215Z,100671.72
2022-09-05T12:36:08.830Z,100664.41
2022-09-05T12:40:44.736Z,100662.16
2022-09-05T12:44:42.345Z,100667.31
2022-09-05T12:49:35.093Z,100668.31
2022-09-05T12:54:51.737Z,100670.50
2022-09-05T13:03:05.043Z,100659.84
2022-09-05T13:05:16.214Z,100658.97
2022-09-05T13:13:24.193Z,100658.84
2022-09-05T13:15:43.463Z,100669.09
2022-09-05T13:20:45.654Z,100663.88
2022-09-05T13:25:47.831Z,100663.53
2022-09-05T13:37:53.837Z,100658.91
2022-09-05T13:38:10.676Z,100654.66
2022-09-05T13:41:53.534Z,100646.16
2022-09-05T13:47:29.397Z,100648.13
2022-09-05T13:52:37.730Z,100638.16
2022-09-05T13:57:46.692Z,100630.91
2022-09-05T14:08:44.747Z,100620.34
2022-09-05T14:14:11.219Z,100613.97
2022-09-05T14:19:33.409Z,100609.84
2022-09-05T14:24:50.125Z,100607.31
2022-09-05T14:29:56.147Z,100602.38
2022-09-05T14:37:51.717Z,100592.03
2022-09-05T14:41:23.391Z,100591.56
2022-09-05T14:46:49.811Z,100589.63
2022-09-05T14:51:49.496Z,100583.66
2022-09-05T15:00:38.663Z,100582.19
2022-09-05T15:02:53.942Z,100583.94
2022-09-05T15:07:45.768Z,100577.69
2022-09-05T15:13:02.439Z,100579.31
2022-09-05T15:18:21.630Z,100583.66
2022-09-05T15:23:18.264Z,100584.41
2022-09-05T15:28:33.015Z,100573.94
2022-09-05T15:33:30.980Z,100577.06
2022-09-05T15:38:31.611Z,100564.25
2022-09-05T15:43:35.086Z,100562.81
2022-09-05T15:48:35.513Z,100557.88
2022-09-05T15:53:36.420Z,100555.91
2022-09-05T15:58:52.451Z,100555.47
2022-09-05T16:09:03.089Z,100548.91
2022-09-05T16:10:49.989Z,100543.25
2022-09-05T16:15:56.816Z,100545.94
2022-09-05T16:23:27.392Z,100543.75
2022-09-05T16:25:40.711Z,100539.69
2022-09-05T16:30:39.477Z,100533.56
2022-09-05T16:35:57.277Z,100529.41
2022-09-05T16:40:59.456Z,100525.34
2022-09-05T16:46:14.170Z,100515.88
2022-09-05T16:51:34.790Z,100513.88
2022-09-05T16:56:58.393Z,100517.81
2022-09-05T17:02:07.788Z,100514.34
2022-09-05T17:07:13.858Z,100514.09
2022-09-05T17:12:20.153Z,100509.28
2022-09-05T17:18:20.609Z,100509.59
2022-09-05T17:27:42.802Z,100504.72
2022-09-05T17:29:34.488Z,100497.78
2022-09-05T17:34:37.962Z,100501.31
2022-09-05T17:39:52.442Z,100507.81
2022-09-05T17:45:15.337Z,100511.28
2022-09-05T17:50:25.174Z,100511.50
2022-09-05T17:55:40.142Z,100521.22
2022-09-05T18:00:49.326Z,100509.25
2022-09-05T18:06:14.762Z,100492.88
2022-09-05T18:11:17.958Z,100496.31
2022-09-05T18:17:35.351Z,100499.53
2022-09-05T18:22:25.306Z,100495.19
2022-09-05T18:28:03.190Z,100491.25
2022-09-05T18:33:53.910Z,100498.19
2022-09-05T18:38:50.474Z,100507.81
2022-09-05T18:44:13.300Z,100507.03
2022-09-05T18:50:22.188Z,100510.56
2022-09-05T18:54:43.216Z,100521.69
2022-09-05T18:59:51.496Z,100521.25
2022-09-05T19:04:53.344Z,100509.47
2022-09-05T19:10:33.821Z,100508.63
2022-09-05T19:15:33.924Z,100514.44
2022-09-05T19:21:04.582Z,100511.47
2022-09-05T19:26:10.106Z,100512.84
2022-09-05T19:36:49.198Z,100516.38
2022-09-05T19:36:52.295Z,100515.97
2022-09-05T19:47:26.476Z,100515.94
2022-09-05T19:47:56.351Z,100515.13
2022-09-05T19:52:50.206Z,100516.75
2022-09-05T19:57:54.221Z,100511.72
2022-09-05T20:03:08.267Z,100512.13
2022-09-05T20:08:07.179Z,100503.97
2022-09-05T20:13:21.744Z,100499.09
2022-09-05T20:18:42.034Z,100496.56
2022-09-05T20:23:44.787Z,100502.78
2022-09-05T20:28:41.985Z,100495.44
2022-09-05T20:33:44.458Z,100498.16
2022-09-05T20:43:19.534Z,100503.72
2022-09-05T20:44:22.675Z,100513.31
2022-09-05T20:54:23.436Z,100518.31
2022-09-05T20:54:44.635Z,100515.84
2022-09-05T20:59:42.374Z,100509.75
2022-09-05T21:04:39.426Z,100497.38
2022-09-05T21:09:49.686Z,100510.34
2022-09-05T21:14:46.423Z,100502.78
2022-09-05T21:19:53.279Z,100502.31
2022-09-05T21:25:14.802Z,100518.50
2022-09-05T21:30:45.347Z,100514.72
2022-09-05T21:35:44.782Z,100512.78
2022-09-05T21:40:43.107Z,100517.16
2022-09-05T21:47:42.893Z,100504.19
2022-09-05T21:51:00.143Z,100508.72
2022-09-05T21:59:29.386Z,100500.31
2022-09-05T22:01:18.105Z,100505.34
2022-09-05T22:06:16.045Z,100502.41
2022-09-05T22:11:13.858Z,100502.56
2022-09-05T22:16:14.623Z,100496.81
2022-09-05T22:21:33.505Z,100498.69
2022-09-05T22:26:35.831Z,100489.00
2022-09-05T22:31:32.445Z,100476.69
2022-09-05T22:36:28.867Z,100478.56
2022-09-05T22:41:30.164Z,100467.44
2022-09-05T22:46:28.768Z,100466.81
2022-09-05T22:51:25.117Z,100477.38
2022-09-05T22:56:35.094Z,100462.66
2022-09-05T23:01:32.848Z,100448.44
2022-09-05T23:06:29.218Z,100449.06
2022-09-05T23:11:25.612Z,100447.03
2022-09-05T23:16:21.970Z,100452.19
2022-09-05T23:21:19.778Z,100466.13
2022-09-05T23:26:16.831Z,100462.13
2022-09-05T23:31:13.288Z,100456.03
2022-09-05T23:36:13.667Z,100455.41
2022-09-05T23:41:14.586Z,100453.66
2022-09-05T23:46:11.073Z,100452.19
2022-09-05T23:51:10.193Z,100444.25
2022-09-05T23:56:08.829Z,100438.66
